sensor_id;sensor_type;location;lat;lon;timestamp;temperature;humidity
75500;DHT22;64076;51.466;7.260;2024-03-08T00:00:16;24.70;26.40
75500;DHT22;64076;51.466;7.260;2024-03-08T00:02:47;24.60;26.40
75500;DHT22;64076;51.466;7.260;2024-03-08T00:05:14;24.60;26.40
75500;DHT22;64076;51.466;7.260;2024-03-08T00:07:40;24.60;26.30
75500;DHT22;64076;51.466;7.260;2024-03-08T00:10:07;24.60;26.30
75500;DHT22;64076;51.466;7.260;2024-03-08T00:12:40;24.60;26.40
75500;DHT22;64076;51.466;7.260;2024-03-08T00:15:12;24.60;26.30
75500;DHT22;64076;51.466;7.260;2024-03-08T00:17:39;24.60;26.40
75500;DHT22;64076;51.466;7.260;2024-03-08T00:20:06;24.60;26.30
75500;DHT22;64076;51.466;7.260;2024-03-08T00:22:37;24.60;26.30
75500;DHT22;64076;51.466;7.260;2024-03-08T00:25:04;24.60;26.30
75500;DHT22;64076;51.466;7.260;2024-03-08T00:27:30;24.60;26.30
75500;DHT22;64076;51.466;7.260;2024-03-08T00:29:59;24.60;26.20
75500;DHT22;64076;51.466;7.260;2024-03-08T00:32:25;24.50;26.20
75500;DHT22;64076;51.466;7.260;2024-03-08T00:34:51;24.60;26.20
75500;DHT22;64076;51.466;7.260;2024-03-08T00:37:20;24.60;26.20
75500;DHT22;64076;51.466;7.260;2024-03-08T00:39:52;24.60;26.20
75500;DHT22;64076;51.466;7.260;2024-03-08T00:42:18;24.60;26.20
75500;DHT22;64076;51.466;7.260;2024-03-08T00:44:44;24.60;26.10
75500;DHT22;64076;51.466;7.260;2024-03-08T00:47:10;24.60;26.10
75500;DHT22;64076;51.466;7.260;2024-03-08T00:49:36;24.60;26.10
75500;DHT22;64076;51.466;7.260;2024-03-08T00:52:07;24.60;26.10
75500;DHT22;64076;51.466;7.260;2024-03-08T00:54:34;24.60;26.00
75500;DHT22;64076;51.466;7.260;2024-03-08T00:57:01;24.50;26.10
75500;DHT22;64076;51.466;7.260;2024-03-08T00:59:28;24.60;26.00
75500;DHT22;64076;51.466;7.260;2024-03-08T01:01:54;24.60;26.00
75500;DHT22;64076;51.466;7.260;2024-03-08T01:04:20;24.50;26.00
75500;DHT22;64076;51.466;7.260;2024-03-08T01:06:46;24.50;26.00
75500;DHT22;64076;51.466;7.260;2024-03-08T01:09:12;24.50;26.00
75500;DHT22;64076;51.466;7.260;2024-03-08T01:11:38;24.50;26.00
75500;DHT22;64076;51.466;7.260;2024-03-08T01:14:04;24.50;26.00
75500;DHT22;64076;51.466;7.260;2024-03-08T01:16:29;24.50;26.00
75500;DHT22;64076;51.466;7.260;2024-03-08T01:18:55;24.50;26.00
75500;DHT22;64076;51.466;7.260;2024-03-08T01:21:20;24.50;26.00
75500;DHT22;64076;51.466;7.260;2024-03-08T01:23:46;24.50;26.00
75500;DHT22;64076;51.466;7.260;2024-03-08T01:26:12;24.50;25.90
75500;DHT22;64076;51.466;7.260;2024-03-08T01:28:37;24.50;25.90
75500;DHT22;64076;51.466;7.260;2024-03-08T01:31:03;24.50;25.90
75500;DHT22;64076;51.466;7.260;2024-03-08T01:33:29;24.50;25.90
75500;DHT22;64076;51.466;7.260;2024-03-08T01:35:55;24.50;25.90
75500;DHT22;64076;51.466;7.260;2024-03-08T01:38:22;24.50;25.90
75500;DHT22;64076;51.466;7.260;2024-03-08T01:40:48;24.50;25.90
75500;DHT22;64076;51.466;7.260;2024-03-08T01:43:20;24.50;25.90
75500;DHT22;64076;51.466;7.260;2024-03-08T01:45:46;24.40;25.80
75500;DHT22;64076;51.466;7.260;2024-03-08T01:48:12;24.40;25.90
75500;DHT22;64076;51.466;7.260;2024-03-08T01:50:39;24.40;25.90
75500;DHT22;64076;51.466;7.260;2024-03-08T01:53:06;24.40;25.80
75500;DHT22;64076;51.466;7.260;2024-03-08T01:55:32;24.40;25.70
75500;DHT22;64076;51.466;7.260;2024-03-08T01:58:02;24.40;25.80
75500;DHT22;64076;51.466;7.260;2024-03-08T02:00:29;24.40;25.70
75500;DHT22;64076;51.466;7.260;2024-03-08T02:02:55;24.40;25.70
75500;DHT22;64076;51.466;7.260;2024-03-08T02:05:22;24.40;25.70
75500;DHT22;64076;51.466;7.260;2024-03-08T02:07:48;24.40;25.70
75500;DHT22;64076;51.466;7.260;2024-03-08T02:10:14;24.40;25.70
75500;DHT22;64076;51.466;7.260;2024-03-08T02:12:40;24.40;25.70
75500;DHT22;64076;51.466;7.260;2024-03-08T02:15:06;24.40;25.60
75500;DHT22;64076;51.466;7.260;2024-03-08T02:17:32;24.40;25.60
75500;DHT22;64076;51.466;7.260;2024-03-08T02:19:59;24.40;25.60
75500;DHT22;64076;51.466;7.260;2024-03-08T02:22:27;24.40;25.60
75500;DHT22;64076;51.466;7.260;2024-03-08T02:24:54;24.40;25.50
75500;DHT22;64076;51.466;7.260;2024-03-08T02:27:24;24.40;25.60
75500;DHT22;64076;51.466;7.260;2024-03-08T02:29:57;24.40;25.50
75500;DHT22;64076;51.466;7.260;2024-03-08T02:32:25;24.40;25.50
75500;DHT22;64076;51.466;7.260;2024-03-08T02:34:56;24.40;25.50
75500;DHT22;64076;51.466;7.260;2024-03-08T02:37:21;24.30;25.50
75500;DHT22;64076;51.466;7.260;2024-03-08T02:39:47;24.30;25.50
75500;DHT22;64076;51.466;7.260;2024-03-08T02:42:13;24.30;25.50
75500;DHT22;64076;51.466;7.260;2024-03-08T02:44:42;24.30;25.40
75500;DHT22;64076;51.466;7.260;2024-03-08T02:47:09;24.30;25.50
75500;DHT22;64076;51.466;7.260;2024-03-08T02:49:35;24.30;25.50
75500;DHT22;64076;51.466;7.260;2024-03-08T02:52:02;24.30;25.50
75500;DHT22;64076;51.466;7.260;2024-03-08T02:54:28;24.30;25.50
75500;DHT22;64076;51.466;7.260;2024-03-08T02:56:53;24.30;25.50
75500;DHT22;64076;51.466;7.260;2024-03-08T02:59:19;24.30;25.50
75500;DHT22;64076;51.466;7.260;2024-03-08T03:01:44;24.30;25.50
75500;DHT22;64076;51.466;7.260;2024-03-08T03:04:10;24.30;25.50
75500;DHT22;64076;51.466;7.260;2024-03-08T03:06:35;24.30;25.40
75500;DHT22;64076;51.466;7.260;2024-03-08T03:09:01;24.30;25.50
75500;DHT22;64076;51.466;7.260;2024-03-08T03:11:27;24.30;25.40
75500;DHT22;64076;51.466;7.260;2024-03-08T03:13:53;24.30;25.40
75500;DHT22;64076;51.466;7.260;2024-03-08T03:16:19;24.30;25.40
75500;DHT22;64076;51.466;7.260;2024-03-08T03:18:45;24.30;25.40
75500;DHT22;64076;51.466;7.260;2024-03-08T03:21:11;24.20;25.40
75500;DHT22;64076;51.466;7.260;2024-03-08T03:23:41;24.30;25.40
75500;DHT22;64076;51.466;7.260;2024-03-08T03:26:08;24.20;25.40
75500;DHT22;64076;51.466;7.260;2024-03-08T03:28:34;24.30;25.30
75500;DHT22;64076;51.466;7.260;2024-03-08T03:30:59;24.20;25.40
75500;DHT22;64076;51.466;7.260;2024-03-08T03:33:25;24.30;25.30
75500;DHT22;64076;51.466;7.260;2024-03-08T03:35:51;24.20;25.30
75500;DHT22;64076;51.466;7.260;2024-03-08T03:38:20;24.20;25.30
75500;DHT22;64076;51.466;7.260;2024-03-08T03:40:48;24.30;25.30
75500;DHT22;64076;51.466;7.260;2024-03-08T03:43:17;24.20;25.30
75500;DHT22;64076;51.466;7.260;2024-03-08T03:45:43;24.20;25.30
75500;DHT22;64076;51.466;7.260;2024-03-08T03:48:09;24.30;25.30
75500;DHT22;64076;51.466;7.260;2024-03-08T03:50:35;24.20;25.30
75500;DHT22;64076;51.466;7.260;2024-03-08T03:53:01;24.20;25.30
75500;DHT22;64076;51.466;7.260;2024-03-08T03:55:28;24.20;25.30
75500;DHT22;64076;51.466;7.260;2024-03-08T03:57:54;24.20;25.30
75500;DHT22;64076;51.466;7.260;2024-03-08T04:00:19;24.30;25.20
75500;DHT22;64076;51.466;7.260;2024-03-08T04:02:45;24.20;25.20
75500;DHT22;64076;51.466;7.260;2024-03-08T04:05:12;24.20;25.20
75500;DHT22;64076;51.466;7.260;2024-03-08T04:07:38;24.20;25.20
75500;DHT22;64076;51.466;7.260;2024-03-08T04:10:05;24.20;25.20
75500;DHT22;64076;51.466;7.260;2024-03-08T04:12:34;24.20;25.20
75500;DHT22;64076;51.466;7.260;2024-03-08T04:15:00;24.20;25.20
75500;DHT22;64076;51.466;7.260;2024-03-08T04:17:26;24.20;25.30
75500;DHT22;64076;51.466;7.260;2024-03-08T04:19:51;24.20;25.20
75500;DHT22;64076;51.466;7.260;2024-03-08T04:22:17;24.20;25.20
75500;DHT22;64076;51.466;7.260;2024-03-08T04:24:46;24.20;25.30
75500;DHT22;64076;51.466;7.260;2024-03-08T04:27:12;24.20;25.20
75500;DHT22;64076;51.466;7.260;2024-03-08T04:29:38;24.20;25.20
75500;DHT22;64076;51.466;7.260;2024-03-08T04:32:05;24.10;25.30
75500;DHT22;64076;51.466;7.260;2024-03-08T04:34:32;24.10;25.30
75500;DHT22;64076;51.466;7.260;2024-03-08T04:36:57;24.10;25.20
75500;DHT22;64076;51.466;7.260;2024-03-08T04:39:24;24.10;25.20
75500;DHT22;64076;51.466;7.260;2024-03-08T04:41:49;24.10;25.30
75500;DHT22;64076;51.466;7.260;2024-03-08T04:44:16;24.10;25.20
75500;DHT22;64076;51.466;7.260;2024-03-08T04:46:43;24.10;25.30
75500;DHT22;64076;51.466;7.260;2024-03-08T04:49:08;24.10;25.30
75500;DHT22;64076;51.466;7.260;2024-03-08T04:51:34;24.10;25.30
75500;DHT22;64076;51.466;7.260;2024-03-08T04:53:59;24.10;25.30
75500;DHT22;64076;51.466;7.260;2024-03-08T04:56:25;24.10;25.30
75500;DHT22;64076;51.466;7.260;2024-03-08T04:58:51;24.10;25.30
75500;DHT22;64076;51.466;7.260;2024-03-08T05:01:17;24.10;25.20
75500;DHT22;64076;51.466;7.260;2024-03-08T05:03:42;24.10;25.20
75500;DHT22;64076;51.466;7.260;2024-03-08T05:06:08;24.10;25.30
75500;DHT22;64076;51.466;7.260;2024-03-08T05:08:34;24.10;25.30
75500;DHT22;64076;51.466;7.260;2024-03-08T05:11:00;24.10;25.20
75500;DHT22;64076;51.466;7.260;2024-03-08T05:13:30;24.10;25.20
75500;DHT22;64076;51.466;7.260;2024-03-08T05:15:56;24.10;25.20
75500;DHT22;64076;51.466;7.260;2024-03-08T05:18:24;24.10;25.20
75500;DHT22;64076;51.466;7.260;2024-03-08T05:20:49;24.10;25.20
75500;DHT22;64076;51.466;7.260;2024-03-08T05:23:16;24.10;25.20
75500;DHT22;64076;51.466;7.260;2024-03-08T05:25:41;24.20;25.20
75500;DHT22;64076;51.466;7.260;2024-03-08T05:28:07;24.10;25.20
75500;DHT22;64076;51.466;7.260;2024-03-08T05:30:34;24.10;25.20
75500;DHT22;64076;51.466;7.260;2024-03-08T05:33:01;24.10;25.20
75500;DHT22;64076;51.466;7.260;2024-03-08T05:35:27;24.10;25.10
75500;DHT22;64076;51.466;7.260;2024-03-08T05:37:52;24.10;25.20
75500;DHT22;64076;51.466;7.260;2024-03-08T05:40:18;24.10;25.20
75500;DHT22;64076;51.466;7.260;2024-03-08T05:42:44;24.10;25.20
75500;DHT22;64076;51.466;7.260;2024-03-08T05:45:10;24.10;25.20
75500;DHT22;64076;51.466;7.260;2024-03-08T05:47:36;24.10;25.20
75500;DHT22;64076;51.466;7.260;2024-03-08T05:50:02;24.10;25.20
75500;DHT22;64076;51.466;7.260;2024-03-08T05:52:27;24.10;25.20
75500;DHT22;64076;51.466;7.260;2024-03-08T05:54:53;24.10;25.20
75500;DHT22;64076;51.466;7.260;2024-03-08T05:57:18;24.00;25.20
75500;DHT22;64076;51.466;7.260;2024-03-08T05:59:44;24.00;25.20
75500;DHT22;64076;51.466;7.260;2024-03-08T06:02:10;24.00;25.20
75500;DHT22;64076;51.466;7.260;2024-03-08T06:04:35;24.00;25.20
75500;DHT22;64076;51.466;7.260;2024-03-08T06:07:01;24.00;25.20
75500;DHT22;64076;51.466;7.260;2024-03-08T06:09:28;24.00;25.20
75500;DHT22;64076;51.466;7.260;2024-03-08T06:11:54;24.00;25.30
75500;DHT22;64076;51.466;7.260;2024-03-08T06:14:20;24.00;25.30
75500;DHT22;64076;51.466;7.260;2024-03-08T06:16:46;24.00;25.30
75500;DHT22;64076;51.466;7.260;2024-03-08T06:19:12;24.00;25.30
75500;DHT22;64076;51.466;7.260;2024-03-08T06:21:38;24.00;25.20
75500;DHT22;64076;51.466;7.260;2024-03-08T06:24:04;24.00;25.20
75500;DHT22;64076;51.466;7.260;2024-03-08T06:26:29;24.00;25.00
75500;DHT22;64076;51.466;7.260;2024-03-08T06:28:55;24.20;24.80
75500;DHT22;64076;51.466;7.260;2024-03-08T06:31:21;24.30;24.70
75500;DHT22;64076;51.466;7.260;2024-03-08T06:33:47;24.30;24.60
75500;DHT22;64076;51.466;7.260;2024-03-08T06:36:18;24.40;24.50
75500;DHT22;64076;51.466;7.260;2024-03-08T06:38:45;24.40;24.50
75500;DHT22;64076;51.466;7.260;2024-03-08T06:41:11;24.50;24.40
75500;DHT22;64076;51.466;7.260;2024-03-08T06:43:46;24.50;24.40
75500;DHT22;64076;51.466;7.260;2024-03-08T06:46:15;24.50;24.30
75500;DHT22;64076;51.466;7.260;2024-03-08T06:48:40;24.60;24.20
75500;DHT22;64076;51.466;7.260;2024-03-08T06:51:06;24.70;24.20
75500;DHT22;64076;51.466;7.260;2024-03-08T06:53:32;24.70;24.10
75500;DHT22;64076;51.466;7.260;2024-03-08T06:55:58;24.70;24.20
75500;DHT22;64076;51.466;7.260;2024-03-08T06:58:24;24.80;24.10
75500;DHT22;64076;51.466;7.260;2024-03-08T07:00:50;24.80;24.10
75500;DHT22;64076;51.466;7.260;2024-03-08T07:03:18;24.90;24.00
75500;DHT22;64076;51.466;7.260;2024-03-08T07:05:44;24.90;24.00
75500;DHT22;64076;51.466;7.260;2024-03-08T07:08:10;24.90;24.00
75500;DHT22;64076;51.466;7.260;2024-03-08T07:10:35;25.00;24.00
75500;DHT22;64076;51.466;7.260;2024-03-08T07:13:02;25.00;24.00
75500;DHT22;64076;51.466;7.260;2024-03-08T07:15:28;25.10;24.00
75500;DHT22;64076;51.466;7.260;2024-03-08T07:17:54;25.10;23.90
75500;DHT22;64076;51.466;7.260;2024-03-08T07:20:21;25.10;23.90
75500;DHT22;64076;51.466;7.260;2024-03-08T07:22:47;25.20;23.90
75500;DHT22;64076;51.466;7.260;2024-03-08T07:25:13;25.20;23.90
75500;DHT22;64076;51.466;7.260;2024-03-08T07:30:15;25.30;24.00
75500;DHT22;64076;51.466;7.260;2024-03-08T07:32:59;25.30;24.00
75500;DHT22;64076;51.466;7.260;2024-03-08T07:35:28;25.30;24.10
75500;DHT22;64076;51.466;7.260;2024-03-08T07:37:54;25.20;24.10
75500;DHT22;64076;51.466;7.260;2024-03-08T07:40:23;25.30;24.10
75500;DHT22;64076;51.466;7.260;2024-03-08T07:42:49;25.30;24.10
75500;DHT22;64076;51.466;7.260;2024-03-08T07:45:15;25.30;24.10
75500;DHT22;64076;51.466;7.260;2024-03-08T07:47:41;25.30;24.10
75500;DHT22;64076;51.466;7.260;2024-03-08T07:50:07;25.30;24.10
75500;DHT22;64076;51.466;7.260;2024-03-08T07:52:36;25.30;24.10
75500;DHT22;64076;51.466;7.260;2024-03-08T07:55:02;25.40;24.10
75500;DHT22;64076;51.466;7.260;2024-03-08T07:57:29;25.40;24.10
75500;DHT22;64076;51.466;7.260;2024-03-08T07:59:55;25.40;24.10
75500;DHT22;64076;51.466;7.260;2024-03-08T08:02:21;25.40;24.00
75500;DHT22;64076;51.466;7.260;2024-03-08T08:04:46;25.50;24.00
75500;DHT22;64076;51.466;7.260;2024-03-08T08:07:12;25.50;24.00
75500;DHT22;64076;51.466;7.260;2024-03-08T08:09:37;25.50;24.00
75500;DHT22;64076;51.466;7.260;2024-03-08T08:12:03;25.50;24.00
75500;DHT22;64076;51.466;7.260;2024-03-08T08:14:29;25.50;23.90
75500;DHT22;64076;51.466;7.260;2024-03-08T08:16:55;25.50;23.90
75500;DHT22;64076;51.466;7.260;2024-03-08T08:19:22;25.50;23.90
75500;DHT22;64076;51.466;7.260;2024-03-08T08:21:48;25.60;23.90
75500;DHT22;64076;51.466;7.260;2024-03-08T08:24:14;25.60;23.90
75500;DHT22;64076;51.466;7.260;2024-03-08T08:26:40;25.60;23.90
75500;DHT22;64076;51.466;7.260;2024-03-08T08:29:06;25.60;23.90
75500;DHT22;64076;51.466;7.260;2024-03-08T08:31:32;25.50;23.70
75500;DHT22;64076;51.466;7.260;2024-03-08T08:33:58;24.70;24.00
75500;DHT22;64076;51.466;7.260;2024-03-08T08:36:26;23.90;24.50
75500;DHT22;64076;51.466;7.260;2024-03-08T08:38:51;23.00;25.10
75500;DHT22;64076;51.466;7.260;2024-03-08T08:41:21;22.60;25.50
75500;DHT22;64076;51.466;7.260;2024-03-08T08:43:47;22.20;25.90
75500;DHT22;64076;51.466;7.260;2024-03-08T08:46:17;22.40;25.90
75500;DHT22;64076;51.466;7.260;2024-03-08T08:48:42;22.70;25.70
75500;DHT22;64076;51.466;7.260;2024-03-08T08:51:13;23.10;25.50
75500;DHT22;64076;51.466;7.260;2024-03-08T08:53:42;23.40;25.30
75500;DHT22;64076;51.466;7.260;2024-03-08T08:56:12;23.60;25.20
75500;DHT22;64076;51.466;7.260;2024-03-08T08:58:41;23.80;25.00
75500;DHT22;64076;51.466;7.260;2024-03-08T09:01:08;24.00;25.00
75500;DHT22;64076;51.466;7.260;2024-03-08T09:03:35;24.20;24.90
75500;DHT22;64076;51.466;7.260;2024-03-08T09:06:05;24.30;24.90
75500;DHT22;64076;51.466;7.260;2024-03-08T09:08:30;24.50;24.80
75500;DHT22;64076;51.466;7.260;2024-03-08T09:10:56;24.60;24.70
75500;DHT22;64076;51.466;7.260;2024-03-08T09:13:22;24.60;24.80
75500;DHT22;64076;51.466;7.260;2024-03-08T09:15:48;24.70;24.70
75500;DHT22;64076;51.466;7.260;2024-03-08T09:18:14;24.80;24.70
75500;DHT22;64076;51.466;7.260;2024-03-08T09:20:39;24.90;24.70
75500;DHT22;64076;51.466;7.260;2024-03-08T09:23:06;25.00;24.60
75500;DHT22;64076;51.466;7.260;2024-03-08T09:25:33;25.00;24.50
75500;DHT22;64076;51.466;7.260;2024-03-08T09:27:59;25.10;24.60
75500;DHT22;64076;51.466;7.260;2024-03-08T09:37:43;25.10;24.60
75500;DHT22;64076;51.466;7.260;2024-03-08T09:40:08;25.30;24.60
75500;DHT22;64076;51.466;7.260;2024-03-08T09:47:44;25.30;24.50
75500;DHT22;64076;51.466;7.260;2024-03-08T09:50:11;25.40;24.30
75500;DHT22;64076;51.466;7.260;2024-03-08T09:52:41;25.40;24.20
75500;DHT22;64076;51.466;7.260;2024-03-08T09:55:09;25.50;24.20
75500;DHT22;64076;51.466;7.260;2024-03-08T09:57:37;25.50;24.20
75500;DHT22;64076;51.466;7.260;2024-03-08T10:00:04;25.50;24.20
75500;DHT22;64076;51.466;7.260;2024-03-08T10:02:50;25.50;24.20
75500;DHT22;64076;51.466;7.260;2024-03-08T10:05:19;25.60;24.20
75500;DHT22;64076;51.466;7.260;2024-03-08T10:07:47;25.60;24.20
75500;DHT22;64076;51.466;7.260;2024-03-08T10:10:14;25.60;24.20
75500;DHT22;64076;51.466;7.260;2024-03-08T10:12:39;25.60;24.10
75500;DHT22;64076;51.466;7.260;2024-03-08T10:15:08;25.60;24.10
75500;DHT22;64076;51.466;7.260;2024-03-08T10:17:37;25.60;24.10
75500;DHT22;64076;51.466;7.260;2024-03-08T10:20:16;25.60;24.10
75500;DHT22;64076;51.466;7.260;2024-03-08T10:50:41;25.60;24.10
75500;DHT22;64076;51.466;7.260;2024-03-08T10:53:08;25.60;24.30
75500;DHT22;64076;51.466;7.260;2024-03-08T10:55:37;25.60;24.30
75500;DHT22;64076;51.466;7.260;2024-03-08T10:58:04;25.60;24.40
75500;DHT22;64076;51.466;7.260;2024-03-08T11:00:30;25.60;24.40
75500;DHT22;64076;51.466;7.260;2024-03-08T11:02:57;25.60;24.30
75500;DHT22;64076;51.466;7.260;2024-03-08T11:05:39;25.60;24.40
75500;DHT22;64076;51.466;7.260;2024-03-08T11:08:20;25.70;24.40
75500;DHT22;64076;51.466;7.260;2024-03-08T11:10:55;25.60;24.40
75500;DHT22;64076;51.466;7.260;2024-03-08T11:16:00;25.60;24.40
75500;DHT22;64076;51.466;7.260;2024-03-08T11:18:26;25.60;24.50
75500;DHT22;64076;51.466;7.260;2024-03-08T11:20:54;25.60;24.40
75500;DHT22;64076;51.466;7.260;2024-03-08T11:23:23;25.60;24.40
75500;DHT22;64076;51.466;7.260;2024-03-08T11:25:48;25.60;24.40
75500;DHT22;64076;51.466;7.260;2024-03-08T11:28:23;25.60;24.50
75500;DHT22;64076;51.466;7.260;2024-03-08T11:33:26;25.60;24.50
75500;DHT22;64076;51.466;7.260;2024-03-08T11:35:56;25.70;24.50
75500;DHT22;64076;51.466;7.260;2024-03-08T11:38:23;25.70;24.50
75500;DHT22;64076;51.466;7.260;2024-03-08T11:40:48;25.60;24.60
75500;DHT22;64076;51.466;7.260;2024-03-08T11:43:16;25.60;24.60
75500;DHT22;64076;51.466;7.260;2024-03-08T11:45:42;25.60;24.60
75500;DHT22;64076;51.466;7.260;2024-03-08T11:48:07;25.60;24.70
75500;DHT22;64076;51.466;7.260;2024-03-08T11:50:33;25.60;24.60
75500;DHT22;64076;51.466;7.260;2024-03-08T11:53:04;25.60;24.60
75500;DHT22;64076;51.466;7.260;2024-03-08T11:55:31;25.60;24.70
75500;DHT22;64076;51.466;7.260;2024-03-08T12:00:28;25.60;24.70
75500;DHT22;64076;51.466;7.260;2024-03-08T12:05:31;25.60;24.70
75500;DHT22;64076;51.466;7.260;2024-03-08T12:08:01;25.50;24.70
75500;DHT22;64076;51.466;7.260;2024-03-08T12:10:27;25.50;24.60
75500;DHT22;64076;51.466;7.260;2024-03-08T12:12:55;25.50;24.70
75500;DHT22;64076;51.466;7.260;2024-03-08T12:15:23;25.50;24.70
75500;DHT22;64076;51.466;7.260;2024-03-08T12:17:50;25.50;24.70
75500;DHT22;64076;51.466;7.260;2024-03-08T12:20:18;25.50;24.60
75500;DHT22;64076;51.466;7.260;2024-03-08T12:22:44;25.50;24.60
75500;DHT22;64076;51.466;7.260;2024-03-08T12:25:14;25.50;24.60
75500;DHT22;64076;51.466;7.260;2024-03-08T12:27:41;25.60;24.60
75500;DHT22;64076;51.466;7.260;2024-03-08T12:33:01;25.60;24.50
75500;DHT22;64076;51.466;7.260;2024-03-08T12:35:28;25.60;24.20
75500;DHT22;64076;51.466;7.260;2024-03-08T12:37:56;25.60;24.00
75500;DHT22;64076;51.466;7.260;2024-03-08T12:40:28;25.60;23.90
75500;DHT22;64076;51.466;7.260;2024-03-08T12:42:57;25.60;23.90
75500;DHT22;64076;51.466;7.260;2024-03-08T12:45:23;25.60;23.80
75500;DHT22;64076;51.466;7.260;2024-03-08T12:47:50;25.60;23.80
75500;DHT22;64076;51.466;7.260;2024-03-08T12:50:16;25.60;23.80
75500;DHT22;64076;51.466;7.260;2024-03-08T12:52:42;25.60;23.70
75500;DHT22;64076;51.466;7.260;2024-03-08T12:55:08;25.60;23.70
75500;DHT22;64076;51.466;7.260;2024-03-08T12:57:37;25.70;23.70
75500;DHT22;64076;51.466;7.260;2024-03-08T13:00:04;25.70;23.80
75500;DHT22;64076;51.466;7.260;2024-03-08T13:02:30;25.70;23.70
75500;DHT22;64076;51.466;7.260;2024-03-08T13:04:59;25.70;23.60
75500;DHT22;64076;51.466;7.260;2024-03-08T13:07:25;25.70;23.60
75500;DHT22;64076;51.466;7.260;2024-03-08T13:09:53;25.70;23.50
75500;DHT22;64076;51.466;7.260;2024-03-08T13:12:22;25.60;23.50
75500;DHT22;64076;51.466;7.260;2024-03-08T13:14:49;25.60;23.50
75500;DHT22;64076;51.466;7.260;2024-03-08T13:17:15;25.60;23.50
75500;DHT22;64076;51.466;7.260;2024-03-08T13:19:41;25.60;23.50
75500;DHT22;64076;51.466;7.260;2024-03-08T13:22:10;25.60;23.50
75500;DHT22;64076;51.466;7.260;2024-03-08T13:24:42;25.60;23.50
75500;DHT22;64076;51.466;7.260;2024-03-08T13:27:08;25.60;23.50
75500;DHT22;64076;51.466;7.260;2024-03-08T13:29:48;25.60;23.50
75500;DHT22;64076;51.466;7.260;2024-03-08T13:32:15;25.60;23.50
75500;DHT22;64076;51.466;7.260;2024-03-08T13:34:41;25.60;23.50
75500;DHT22;64076;51.466;7.260;2024-03-08T13:37:07;25.60;23.50
75500;DHT22;64076;51.466;7.260;2024-03-08T13:39:35;25.60;23.50
75500;DHT22;64076;51.466;7.260;2024-03-08T13:42:13;25.50;23.40
75500;DHT22;64076;51.466;7.260;2024-03-08T13:44:47;25.50;23.50
75500;DHT22;64076;51.466;7.260;2024-03-08T13:47:14;25.50;23.40
75500;DHT22;64076;51.466;7.260;2024-03-08T13:49:40;25.50;23.40
75500;DHT22;64076;51.466;7.260;2024-03-08T13:52:05;25.50;23.40
75500;DHT22;64076;51.466;7.260;2024-03-08T13:54:34;25.50;23.30
75500;DHT22;64076;51.466;7.260;2024-03-08T13:57:00;25.50;23.40
75500;DHT22;64076;51.466;7.260;2024-03-08T13:59:29;25.50;23.50
75500;DHT22;64076;51.466;7.260;2024-03-08T14:01:56;25.50;23.40
75500;DHT22;64076;51.466;7.260;2024-03-08T14:04:22;25.50;23.50
75500;DHT22;64076;51.466;7.260;2024-03-08T14:06:47;25.50;23.50
75500;DHT22;64076;51.466;7.260;2024-03-08T14:09:14;25.40;23.40
75500;DHT22;64076;51.466;7.260;2024-03-08T14:11:45;25.40;23.50
75500;DHT22;64076;51.466;7.260;2024-03-08T14:14:11;25.40;23.60
75500;DHT22;64076;51.466;7.260;2024-03-08T14:16:39;25.40;23.60
75500;DHT22;64076;51.466;7.260;2024-03-08T14:19:05;25.40;23.60
75500;DHT22;64076;51.466;7.260;2024-03-08T14:21:31;25.40;23.60
75500;DHT22;64076;51.466;7.260;2024-03-08T14:23:57;25.40;23.60
75500;DHT22;64076;51.466;7.260;2024-03-08T14:26:22;25.40;23.70
75500;DHT22;64076;51.466;7.260;2024-03-08T14:28:48;25.40;23.70
75500;DHT22;64076;51.466;7.260;2024-03-08T14:31:17;25.30;23.60
75500;DHT22;64076;51.466;7.260;2024-03-08T14:33:44;25.30;23.70
75500;DHT22;64076;51.466;7.260;2024-03-08T14:36:14;25.40;23.80
75500;DHT22;64076;51.466;7.260;2024-03-08T14:38:42;25.40;23.80
75500;DHT22;64076;51.466;7.260;2024-03-08T14:41:07;25.40;23.80
75500;DHT22;64076;51.466;7.260;2024-03-08T14:43:33;25.40;23.90
75500;DHT22;64076;51.466;7.260;2024-03-08T14:45:58;25.40;23.90
75500;DHT22;64076;51.466;7.260;2024-03-08T14:48:24;25.40;23.80
75500;DHT22;64076;51.466;7.260;2024-03-08T14:50:49;25.40;23.80
75500;DHT22;64076;51.466;7.260;2024-03-08T14:53:16;25.40;23.90
75500;DHT22;64076;51.466;7.260;2024-03-08T14:55:42;25.50;23.90
75500;DHT22;64076;51.466;7.260;2024-03-08T14:58:10;25.40;24.00
75500;DHT22;64076;51.466;7.260;2024-03-08T15:00:36;25.40;24.00
75500;DHT22;64076;51.466;7.260;2024-03-08T15:03:03;25.40;24.10
75500;DHT22;64076;51.466;7.260;2024-03-08T15:05:30;25.40;24.00
75500;DHT22;64076;51.466;7.260;2024-03-08T15:07:57;25.30;24.00
75500;DHT22;64076;51.466;7.260;2024-03-08T15:10:26;25.30;24.00
75500;DHT22;64076;51.466;7.260;2024-03-08T15:12:51;25.40;24.10
75500;DHT22;64076;51.466;7.260;2024-03-08T15:15:21;25.40;24.10
75500;DHT22;64076;51.466;7.260;2024-03-08T15:17:48;25.40;24.10
75500;DHT22;64076;51.466;7.260;2024-03-08T15:20:14;25.40;24.10
75500;DHT22;64076;51.466;7.260;2024-03-08T15:22:49;25.40;24.00
75500;DHT22;64076;51.466;7.260;2024-03-08T15:25:16;25.40;24.10
75500;DHT22;64076;51.466;7.260;2024-03-08T15:27:54;25.40;24.00
75500;DHT22;64076;51.466;7.260;2024-03-08T15:30:21;25.30;24.00
75500;DHT22;64076;51.466;7.260;2024-03-08T15:32:52;25.30;24.00
75500;DHT22;64076;51.466;7.260;2024-03-08T15:35:25;25.30;24.00
75500;DHT22;64076;51.466;7.260;2024-03-08T15:37:51;25.30;24.00
75500;DHT22;64076;51.466;7.260;2024-03-08T15:40:18;25.30;24.00
75500;DHT22;64076;51.466;7.260;2024-03-08T15:45:21;25.30;24.00
75500;DHT22;64076;51.466;7.260;2024-03-08T15:47:49;25.30;24.10
75500;DHT22;64076;51.466;7.260;2024-03-08T15:50:14;25.30;24.00
75500;DHT22;64076;51.466;7.260;2024-03-08T15:52:43;25.30;24.00
75500;DHT22;64076;51.466;7.260;2024-03-08T15:55:17;25.30;24.00
75500;DHT22;64076;51.466;7.260;2024-03-08T15:57:46;25.30;24.10
75500;DHT22;64076;51.466;7.260;2024-03-08T16:00:16;25.30;24.00
75500;DHT22;64076;51.466;7.260;2024-03-08T16:02:57;25.30;24.10
75500;DHT22;64076;51.466;7.260;2024-03-08T16:05:23;25.30;24.00
75500;DHT22;64076;51.466;7.260;2024-03-08T16:07:48;25.30;24.10
75500;DHT22;64076;51.466;7.260;2024-03-08T16:10:14;25.30;24.00
75500;DHT22;64076;51.466;7.260;2024-03-08T16:12:39;25.30;23.90
75500;DHT22;64076;51.466;7.260;2024-03-08T16:17:34;25.30;23.90
75500;DHT22;64076;51.466;7.260;2024-03-08T16:19:59;25.30;23.90
75500;DHT22;64076;51.466;7.260;2024-03-08T16:22:25;25.30;23.90
75500;DHT22;64076;51.466;7.260;2024-03-08T16:24:50;25.30;23.90
75500;DHT22;64076;51.466;7.260;2024-03-08T16:27:18;25.30;23.90
75500;DHT22;64076;51.466;7.260;2024-03-08T16:29:44;25.30;23.90